sensor_id;sensor_type;location;lat;lon;timestamp;pressure;altitude;pressure_sealevel;temperature;humidity
75045;BME280;63614;56.026;35.960;2023-06-22T00:00:26;99436.81;;;10.49;70.07
75045;BME280;63614;56.026;35.960;2023-06-22T00:02:52;99450.19;;;10.46;70.09
75045;BME280;63614;56.026;35.960;2023-06-22T00:05:17;99450.44;;;10.51;70.19
75045;BME280;63614;56.026;35.960;2023-06-22T00:07:45;99450.88;;;10.33;70.71
75045;BME280;63614;56.026;35.960;2023-06-22T00:10:10;99447.53;;;10.24;70.64
75045;BME280;63614;56.026;35.960;2023-06-22T00:12:36;99452.13;;;10.22;70.86
75045;BME280;63614;56.026;35.960;2023-06-22T00:15:01;99452.50;;;10.34;70.27
75045;BME280;63614;56.026;35.960;2023-06-22T00:17:28;99450.88;;;10.33;70.60
75045;BME280;63614;56.026;35.960;2023-06-22T00:19:53;99445.22;;;10.29;70.11
75045;BME280;63614;56.026;35.960;2023-06-22T00:22:20;99442.34;;;10.24;70.01
75045;BME280;63614;56.026;35.960;2023-06-22T00:24:54;99443.59;;;10.28;70.16
75045;BME280;63614;56.026;35.960;2023-06-22T00:27:20;99440.47;;;10.33;70.31
75045;BME280;63614;56.026;35.960;2023-06-22T00:29:46;99439.13;;;10.37;70.24
75045;BME280;63614;56.026;35.960;2023-06-22T00:32:11;99445.41;;;10.28;70.48
75045;BME280;63614;56.026;35.960;2023-06-22T00:34:37;99449.41;;;10.30;70.32
75045;BME280;63614;56.026;35.960;2023-06-22T00:37:02;99445.13;;;10.38;69.96
75045;BME280;63614;56.026;35.960;2023-06-22T00:39:28;99447.81;;;10.29;69.69
75045;BME280;63614;56.026;35.960;2023-06-22T00:41:56;99451.75;;;10.25;68.99
75045;BME280;63614;56.026;35.960;2023-06-22T00:44:22;99448.94;;;10.05;69.13
75045;BME280;63614;56.026;35.960;2023-06-22T00:46:50;99448.41;;;9.95;69.49
75045;BME280;63614;56.026;35.960;2023-06-22T00:49:15;99448.06;;;9.98;69.21
75045;BME280;63614;56.026;35.960;2023-06-22T00:51:41;99451.81;;;9.95;69.18
75045;BME280;63614;56.026;35.960;2023-06-22T00:54:11;99450.56;;;9.91;69.23
75045;BME280;63614;56.026;35.960;2023-06-22T00:56:39;99447.34;;;9.89;69.61
75045;BME280;63614;56.026;35.960;2023-06-22T00:59:05;99451.09;;;10.02;69.42
75045;BME280;63614;56.026;35.960;2023-06-22T01:01:31;99462.81;;;10.12;69.14
75045;BME280;63614;56.026;35.960;2023-06-22T01:03:57;99456.31;;;10.38;69.18
75045;BME280;63614;56.026;35.960;2023-06-22T01:06:26;99454.97;;;10.64;68.49
75045;BME280;63614;56.026;35.960;2023-06-22T01:09:00;99465.75;;;10.82;67.86
75045;BME280;63614;56.026;35.960;2023-06-22T01:11:29;99452.94;;;10.81;67.35
75045;BME280;63614;56.026;35.960;2023-06-22T01:14:02;99455.66;;;11.01;67.06
75045;BME280;63614;56.026;35.960;2023-06-22T01:16:30;99456.81;;;11.48;65.72
75045;BME280;63614;56.026;35.960;2023-06-22T01:21:41;99452.88;;;11.94;64.46
75045;BME280;63614;56.026;35.960;2023-06-22T01:24:18;99459.31;;;12.05;64.57
75045;BME280;63614;56.026;35.960;2023-06-22T01:29:15;99466.63;;;12.36;61.96
75045;BME280;63614;56.026;35.960;2023-06-22T01:31:42;99463.88;;;12.71;61.38
75045;BME280;63614;56.026;35.960;2023-06-22T01:34:11;99465.06;;;12.62;60.66
75045;BME280;63614;56.026;35.960;2023-06-22T01:36:37;99477.34;;;12.81;60.17
75045;BME280;63614;56.026;35.960;2023-06-22T01:39:04;99478.16;;;12.75;59.76
75045;BME280;63614;56.026;35.960;2023-06-22T01:41:32;99471.75;;;12.84;59.62
75045;BME280;63614;56.026;35.960;2023-06-22T01:43:58;99467.28;;;13.05;59.07
75045;BME280;63614;56.026;35.960;2023-06-22T01:46:24;99463.31;;;13.36;58.94
75045;BME280;63614;56.026;35.960;2023-06-22T01:48:50;99466.59;;;13.76;57.74
75045;BME280;63614;56.026;35.960;2023-06-22T01:51:16;99456.81;;;14.10;56.80
75045;BME280;63614;56.026;35.960;2023-06-22T01:53:42;99463.81;;;14.16;56.30
75045;BME280;63614;56.026;35.960;2023-06-22T01:56:08;99458.81;;;14.47;55.41
75045;BME280;63614;56.026;35.960;2023-06-22T01:58:33;99457.53;;;14.63;54.90
75045;BME280;63614;56.026;35.960;2023-06-22T02:01:12;99451.63;;;14.74;54.58
75045;BME280;63614;56.026;35.960;2023-06-22T02:03:43;99446.09;;;14.57;55.53
75045;BME280;63614;56.026;35.960;2023-06-22T02:06:14;99442.28;;;14.21;56.70
75045;BME280;63614;56.026;35.960;2023-06-22T02:08:48;99442.81;;;14.37;56.74
75045;BME280;63614;56.026;35.960;2023-06-22T02:11:16;99446.38;;;14.42;56.46
75045;BME280;63614;56.026;35.960;2023-06-22T02:13:44;99447.50;;;14.60;55.92
75045;BME280;63614;56.026;35.960;2023-06-22T02:16:13;99447.47;;;14.66;55.35
75045;BME280;63614;56.026;35.960;2023-06-22T02:18:45;99452.06;;;14.96;54.65
75045;BME280;63614;56.026;35.960;2023-06-22T02:21:11;99442.69;;;15.07;54.84
75045;BME280;63614;56.026;35.960;2023-06-22T02:23:36;99439.03;;;15.52;53.63
75045;BME280;63614;56.026;35.960;2023-06-22T02:26:02;99433.34;;;15.92;52.85
75045;BME280;63614;56.026;35.960;2023-06-22T02:28:28;99425.53;;;16.34;52.48
75045;BME280;63614;56.026;35.960;2023-06-22T02:30:54;99432.25;;;16.84;51.44
75045;BME280;63614;56.026;35.960;2023-06-22T02:33:19;99434.19;;;17.36;50.35
75045;BME280;63614;56.026;35.960;2023-06-22T02:35:45;99428.00;;;17.42;50.65
75045;BME280;63614;56.026;35.960;2023-06-22T02:38:14;99425.81;;;17.63;50.54
75045;BME280;63614;56.026;35.960;2023-06-22T02:40:39;99425.91;;;17.68;51.00
75045;BME280;63614;56.026;35.960;2023-06-22T02:43:05;99421.25;;;17.87;51.04
75045;BME280;63614;56.026;35.960;2023-06-22T02:45:30;99422.50;;;18.08;50.57
75045;BME280;63614;56.026;35.960;2023-06-22T02:47:56;99425.59;;;18.22;50.38
75045;BME280;63614;56.026;35.960;2023-06-22T02:50:22;99429.34;;;18.55;49.87
75045;BME280;63614;56.026;35.960;2023-06-22T02:52:48;99419.81;;;19.04;48.73
75045;BME280;63614;56.026;35.960;2023-06-22T02:55:14;99420.88;;;19.42;48.10
75045;BME280;63614;56.026;35.960;2023-06-22T02:57:40;99425.03;;;19.60;47.75
75045;BME280;63614;56.026;35.960;2023-06-22T03:00:11;99421.63;;;19.82;47.84
75045;BME280;63614;56.026;35.960;2023-06-22T03:02:45;99417.91;;;19.83;47.90
75045;BME280;63614;56.026;35.960;2023-06-22T03:05:11;99421.19;;;19.90;47.53
75045;BME280;63614;56.026;35.960;2023-06-22T03:07:39;99417.00;;;19.94;47.14
75045;BME280;63614;56.026;35.960;2023-06-22T03:10:09;99414.69;;;19.76;47.47
75045;BME280;63614;56.026;35.960;2023-06-22T03:12:36;99413.38;;;19.34;48.80
75045;BME280;63614;56.026;35.960;2023-06-22T03:15:01;99413.72;;;19.21;49.31
75045;BME280;63614;56.026;35.960;2023-06-22T03:17:28;99407.22;;;19.29;49.27
75045;BME280;63614;56.026;35.960;2023-06-22T03:19:54;99402.28;;;19.32;49.57
75045;BME280;63614;56.026;35.960;2023-06-22T03:22:19;99398.47;;;19.45;49.02
75045;BME280;63614;56.026;35.960;2023-06-22T03:24:45;99397.66;;;19.22;49.87
75045;BME280;63614;56.026;35.960;2023-06-22T03:27:12;99404.66;;;18.78;50.95
75045;BME280;63614;56.026;35.960;2023-06-22T03:29:39;99410.97;;;18.77;51.46
75045;BME280;63614;56.026;35.960;2023-06-22T03:32:05;99408.19;;;19.00;51.01
75045;BME280;63614;56.026;35.960;2023-06-22T03:34:31;99403.81;;;19.50;50.08
75045;BME280;63614;56.026;35.960;2023-06-22T03:36:58;99407.31;;;19.34;52.21
75045;BME280;63614;56.026;35.960;2023-06-22T03:39:24;99411.03;;;18.82;52.94
75045;BME280;63614;56.026;35.960;2023-06-22T03:41:50;99397.19;;;18.86;54.18
75045;BME280;63614;56.026;35.960;2023-06-22T03:44:17;99397.41;;;19.02;52.14
75045;BME280;63614;56.026;35.960;2023-06-22T03:46:42;99403.78;;;19.06;52.02
75045;BME280;63614;56.026;35.960;2023-06-22T03:49:08;99403.28;;;19.09;52.16
75045;BME280;63614;56.026;35.960;2023-06-22T03:51:33;99403.31;;;19.31;51.46
75045;BME280;63614;56.026;35.960;2023-06-22T03:53:59;99403.47;;;20.18;48.81
75045;BME280;63614;56.026;35.960;2023-06-22T03:56:25;99402.59;;;21.10;46.48
75045;BME280;63614;56.026;35.960;2023-06-22T03:58:50;99399.47;;;21.97;44.96
75045;BME280;63614;56.026;35.960;2023-06-22T04:01:16;99395.84;;;22.49;44.11
75045;BME280;63614;56.026;35.960;2023-06-22T04:03:44;99397.38;;;22.09;44.24
75045;BME280;63614;56.026;35.960;2023-06-22T04:06:10;99399.22;;;21.83;43.16
75045;BME280;63614;56.026;35.960;2023-06-22T04:08:35;99402.34;;;21.74;42.62
75045;BME280;63614;56.026;35.960;2023-06-22T04:11:01;99395.25;;;22.11;41.33
75045;BME280;63614;56.026;35.960;2023-06-22T04:13:26;99395.53;;;22.14;41.84
75045;BME280;63614;56.026;35.960;2023-06-22T04:15:52;99392.31;;;21.92;42.66
75045;BME280;63614;56.026;35.960;2023-06-22T04:18:17;99396.53;;;21.77;42.52
75045;BME280;63614;56.026;35.960;2023-06-22T04:20:43;99391.28;;;22.03;42.52
75045;BME280;63614;56.026;35.960;2023-06-22T04:23:12;99376.19;;;22.04;42.40
75045;BME280;63614;56.026;35.960;2023-06-22T04:25:37;99383.66;;;22.43;42.51
75045;BME280;63614;56.026;35.960;2023-06-22T04:28:03;99387.31;;;22.83;40.83
75045;BME280;63614;56.026;35.960;2023-06-22T04:30:29;99381.97;;;23.14;40.70
75045;BME280;63614;56.026;35.960;2023-06-22T04:32:56;99378.25;;;23.70;39.52
75045;BME280;63614;56.026;35.960;2023-06-22T04:35:25;99374.66;;;23.45;40.05
75045;BME280;63614;56.026;35.960;2023-06-22T04:37:52;99366.19;;;23.43;40.35
75045;BME280;63614;56.026;35.960;2023-06-22T04:40:22;99379.09;;;24.74;37.95
75045;BME280;63614;56.026;35.960;2023-06-22T04:42:47;99375.47;;;25.37;36.17
75045;BME280;63614;56.026;35.960;2023-06-22T04:45:18;99364.25;;;25.97;35.30
75045;BME280;63614;56.026;35.960;2023-06-22T04:47:47;99357.94;;;26.87;34.12
75045;BME280;63614;56.026;35.960;2023-06-22T04:50:12;99364.50;;;27.59;32.90
75045;BME280;63614;56.026;35.960;2023-06-22T04:52:38;99364.19;;;27.60;32.30
75045;BME280;63614;56.026;35.960;2023-06-22T04:55:04;99352.56;;;27.28;32.48
75045;BME280;63614;56.026;35.960;2023-06-22T04:57:29;99356.16;;;27.38;32.54
75045;BME280;63614;56.026;35.960;2023-06-22T04:59:58;99349.72;;;27.25;33.09
75045;BME280;63614;56.026;35.960;2023-06-22T05:02:36;99344.72;;;27.96;30.21
75045;BME280;63614;56.026;35.960;2023-06-22T05:05:02;99347.06;;;28.20;28.72
75045;BME280;63614;56.026;35.960;2023-06-22T05:07:34;99343.22;;;28.67;29.63
75045;BME280;63614;56.026;35.960;2023-06-22T05:10:01;99338.06;;;28.79;27.72
75045;BME280;63614;56.026;35.960;2023-06-22T05:12:27;99337.09;;;29.24;27.98
75045;BME280;63614;56.026;35.960;2023-06-22T05:14:54;99340.25;;;29.34;26.83
75045;BME280;63614;56.026;35.960;2023-06-22T05:17:19;99336.00;;;29.42;26.71
75045;BME280;63614;56.026;35.960;2023-06-22T05:19:45;99331.28;;;29.57;26.61
75045;BME280;63614;56.026;35.960;2023-06-22T05:22:16;99331.25;;;30.00;26.05
75045;BME280;63614;56.026;35.960;2023-06-22T05:24:42;99330.97;;;29.84;26.09
75045;BME280;63614;56.026;35.960;2023-06-22T05:27:08;99334.13;;;29.60;26.05
75045;BME280;63614;56.026;35.960;2023-06-22T05:29:36;99338.38;;;29.70;26.63
75045;BME280;63614;56.026;35.960;2023-06-22T05:32:02;99335.66;;;29.96;25.93
75045;BME280;63614;56.026;35.960;2023-06-22T05:34:27;99337.16;;;30.41;25.18
75045;BME280;63614;56.026;35.960;2023-06-22T05:36:53;99336.34;;;31.39;24.05
75045;BME280;63614;56.026;35.960;2023-06-22T05:39:18;99339.41;;;32.04;23.58
75045;BME280;63614;56.026;35.960;2023-06-22T05:41:44;99333.78;;;32.30;23.22
75045;BME280;63614;56.026;35.960;2023-06-22T05:44:10;99330.88;;;32.60;22.48
75045;BME280;63614;56.026;35.960;2023-06-22T05:46:35;99335.94;;;32.49;22.58
75045;BME280;63614;56.026;35.960;2023-06-22T05:49:01;99332.56;;;32.89;23.04
75045;BME280;63614;56.026;35.960;2023-06-22T05:51:27;99329.75;;;32.49;23.34
75045;BME280;63614;56.026;35.960;2023-06-22T05:53:52;99338.94;;;33.09;22.90
75045;BME280;63614;56.026;35.960;2023-06-22T05:56:18;99323.84;;;33.33;22.51
75045;BME280;63614;56.026;35.960;2023-06-22T05:58:43;99323.59;;;32.85;22.83
75045;BME280;63614;56.026;35.960;2023-06-22T06:01:09;99324.91;;;32.30;23.78
75045;BME280;63614;56.026;35.960;2023-06-22T06:03:34;99333.78;;;31.97;23.53
75045;BME280;63614;56.026;35.960;2023-06-22T06:06:06;99321.81;;;32.07;23.73
75045;BME280;63614;56.026;35.960;2023-06-22T06:08:34;99315.41;;;32.82;23.44
75045;BME280;63614;56.026;35.960;2023-06-22T06:11:01;99315.56;;;31.81;24.29
75045;BME280;63614;56.026;35.960;2023-06-22T06:13:26;99310.38;;;31.43;24.97
75045;BME280;63614;56.026;35.960;2023-06-22T06:18:54;99316.53;;;31.01;24.97
75045;BME280;63614;56.026;35.960;2023-06-22T06:21:23;99313.69;;;30.20;26.30
75045;BME280;63614;56.026;35.960;2023-06-22T06:23:48;99317.38;;;29.72;26.94
75045;BME280;63614;56.026;35.960;2023-06-22T06:26:14;99325.19;;;28.90;28.30
75045;BME280;63614;56.026;35.960;2023-06-22T06:28:42;99324.97;;;29.35;28.32
75045;BME280;63614;56.026;35.960;2023-06-22T06:31:07;99308.75;;;29.49;27.78
75045;BME280;63614;56.026;35.960;2023-06-22T06:33:34;99312.50;;;29.48;28.43
75045;BME280;63614;56.026;35.960;2023-06-22T06:35:59;99309.88;;;28.81;28.64
75045;BME280;63614;56.026;35.960;2023-06-22T06:38:27;99314.66;;;28.53;29.44
75045;BME280;63614;56.026;35.960;2023-06-22T06:43:40;99308.31;;;28.09;30.17
75045;BME280;63614;56.026;35.960;2023-06-22T06:48:50;99305.72;;;27.59;30.37
75045;BME280;63614;56.026;35.960;2023-06-22T06:51:15;99308.41;;;27.59;30.68
75045;BME280;63614;56.026;35.960;2023-06-22T06:53:41;99306.69;;;27.40;31.15
75045;BME280;63614;56.026;35.960;2023-06-22T06:56:06;99298.81;;;27.58;32.01
75045;BME280;63614;56.026;35.960;2023-06-22T06:58:34;99297.06;;;27.76;31.42
75045;BME280;63614;56.026;35.960;2023-06-22T07:00:59;99297.97;;;27.48;32.85
75045;BME280;63614;56.026;35.960;2023-06-22T07:03:25;99295.03;;;27.36;32.18
75045;BME280;63614;56.026;35.960;2023-06-22T07:05:50;99304.63;;;27.23;31.38
75045;BME280;63614;56.026;35.960;2023-06-22T07:08:16;99296.31;;;27.25;31.61
75045;BME280;63614;56.026;35.960;2023-06-22T07:10:42;99298.38;;;27.42;32.00
75045;BME280;63614;56.026;35.960;2023-06-22T07:13:07;99301.47;;;27.21;31.73
75045;BME280;63614;56.026;35.960;2023-06-22T07:15:51;99293.31;;;26.90;32.81
75045;BME280;63614;56.026;35.960;2023-06-22T07:18:16;99297.47;;;26.82;32.95
75045;BME280;63614;56.026;35.960;2023-06-22T07:20:42;99304.25;;;26.46;33.83
75045;BME280;63614;56.026;35.960;2023-06-22T07:23:07;99303.34;;;26.37;34.18
75045;BME280;63614;56.026;35.960;2023-06-22T07:25:33;99302.47;;;26.42;33.99
75045;BME280;63614;56.026;35.960;2023-06-22T07:27:59;99298.16;;;26.74;33.85
75045;BME280;63614;56.026;35.960;2023-06-22T07:30:26;99297.22;;;26.37;34.16
75045;BME280;63614;56.026;35.960;2023-06-22T07:32:52;99302.06;;;26.35;35.15
75045;BME280;63614;56.026;35.960;2023-06-22T07:35:17;99304.06;;;26.43;33.93
75045;BME280;63614;56.026;35.960;2023-06-22T07:40:27;99288.44;;;26.64;33.97
75045;BME280;63614;56.026;35.960;2023-06-22T07:42:52;99290.00;;;26.37;34.20
75045;BME280;63614;56.026;35.960;2023-06-22T07:45:18;99297.34;;;26.32;35.25
75045;BME280;63614;56.026;35.960;2023-06-22T07:47:44;99283.00;;;26.27;35.19
75045;BME280;63614;56.026;35.960;2023-06-22T07:50:10;99286.84;;;26.35;34.18
75045;BME280;63614;56.026;35.960;2023-06-22T07:52:35;99277.88;;;26.59;34.33
75045;BME280;63614;56.026;35.960;2023-06-22T07:55:01;99277.69;;;26.41;34.31
75045;BME280;63614;56.026;35.960;2023-06-22T07:57:28;99276.50;;;26.34;35.07
75045;BME280;63614;56.026;35.960;2023-06-22T07:59:59;99276.22;;;26.49;35.14
75045;BME280;63614;56.026;35.960;2023-06-22T08:02:44;99269.06;;;26.31;34.40
75045;BME280;63614;56.026;35.960;2023-06-22T08:05:10;99261.97;;;26.12;34.76
75045;BME280;63614;56.026;35.960;2023-06-22T08:07:36;99268.09;;;26.26;34.80
75045;BME280;63614;56.026;35.960;2023-06-22T08:10:03;99271.47;;;26.46;35.15
75045;BME280;63614;56.026;35.960;2023-06-22T08:12:29;99263.66;;;26.50;34.37
75045;BME280;63614;56.026;35.960;2023-06-22T08:14:54;99255.28;;;26.70;34.35
75045;BME280;63614;56.026;35.960;2023-06-22T08:17:20;99249.66;;;26.72;34.28
75045;BME280;63614;56.026;35.960;2023-06-22T08:20:04;99256.84;;;26.43;34.28
75045;BME280;63614;56.026;35.960;2023-06-22T08:22:42;99240.53;;;26.45;34.00
75045;BME280;63614;56.026;35.960;2023-06-22T08:25:08;99253.50;;;26.38;34.09
75045;BME280;63614;56.026;35.960;2023-06-22T08:27:34;99252.59;;;26.56;34.72
75045;BME280;63614;56.026;35.960;2023-06-22T08:30:01;99250.91;;;26.46;34.00
75045;BME280;63614;56.026;35.960;2023-06-22T08:32:27;99251.63;;;26.52;34.81
75045;BME280;63614;56.026;35.960;2023-06-22T08:34:53;99251.91;;;26.51;33.31
75045;BME280;63614;56.026;35.960;2023-06-22T08:37:19;99247.44;;;26.32;33.41
75045;BME280;63614;56.026;35.960;2023-06-22T08:39:45;99241.94;;;26.28;32.53
75045;BME280;63614;56.026;35.960;2023-06-22T08:42:10;99247.06;;;26.53;32.57
75045;BME280;63614;56.026;35.960;2023-06-22T08:44:37;99245.59;;;26.33;31.52
75045;BME280;63614;56.026;35.960;2023-06-22T08:47:02;99242.72;;;26.29;31.53
75045;BME280;63614;56.026;35.960;2023-06-22T08:49:47;99239.28;;;26.42;32.04
75045;BME280;63614;56.026;35.960;2023-06-22T08:52:13;99238.94;;;26.58;31.70
75045;BME280;63614;56.026;35.960;2023-06-22T08:57:23;99234.25;;;26.69;33.43
75045;BME280;63614;56.026;35.960;2023-06-22T08:59:49;99233.34;;;26.87;32.71
75045;BME280;63614;56.026;35.960;2023-06-22T09:02:17;99224.72;;;26.90;33.22
75045;BME280;63614;56.026;35.960;2023-06-22T09:05:02;99222.56;;;26.51;32.75
75045;BME280;63614;56.026;35.960;2023-06-22T09:07:28;99217.22;;;26.23;34.18
75045;BME280;63614;56.026;35.960;2023-06-22T09:09:55;99216.34;;;26.41;33.78
75045;BME280;63614;56.026;35.960;2023-06-22T09:12:20;99215.34;;;26.51;33.30
75045;BME280;63614;56.026;35.960;2023-06-22T09:14:49;99218.31;;;26.63;32.20
75045;BME280;63614;56.026;35.960;2023-06-22T09:17:17;99217.25;;;26.51;31.82
75045;BME280;63614;56.026;35.960;2023-06-22T09:22:31;99204.28;;;26.72;32.42
75045;BME280;63614;56.026;35.960;2023-06-22T09:24:56;99205.28;;;26.48;33.37
75045;BME280;63614;56.026;35.960;2023-06-22T09:27:40;99193.63;;;26.72;32.98
75045;BME280;63614;56.026;35.960;2023-06-22T09:30:06;99194.50;;;26.81;32.38
75045;BME280;63614;56.026;35.960;2023-06-22T09:32:32;99188.44;;;26.89;32.95
75045;BME280;63614;56.026;35.960;2023-06-22T09:34:58;99182.78;;;26.68;33.40
75045;BME280;63614;56.026;35.960;2023-06-22T09:38:01;99186.84;;;26.88;32.75
75045;BME280;63614;56.026;35.960;2023-06-22T09:40:27;99187.66;;;26.89;32.62
75045;BME280;63614;56.026;35.960;2023-06-22T09:42:52;99176.31;;;26.83;33.57
75045;BME280;63614;56.026;35.960;2023-06-22T09:45:17;99179.53;;;26.94;32.57
75045;BME280;63614;56.026;35.960;2023-06-22T09:47:43;99182.09;;;27.22;31.71
75045;BME280;63614;56.026;35.960;2023-06-22T09:50:09;99173.91;;;27.32;30.98
75045;BME280;63614;56.026;35.960;2023-06-22T09:52:34;99178.81;;;27.39;31.33
75045;BME280;63614;56.026;35.960;2023-06-22T09:55:00;99171.41;;;27.35;30.46
75045;BME280;63614;56.026;35.960;2023-06-22T09:57:44;99169.03;;;27.34;30.04
75045;BME280;63614;56.026;35.960;2023-06-22T10:00:10;99170.03;;;27.24;30.34
75045;BME280;63614;56.026;35.960;2023-06-22T10:02:38;99173.13;;;27.17;30.87
75045;BME280;63614;56.026;35.960;2023-06-22T10:05:04;99179.97;;;27.10;30.42
75045;BME280;63614;56.026;35.960;2023-06-22T10:07:29;99180.19;;;26.99;30.80
75045;BME280;63614;56.026;35.960;2023-06-22T10:09:55;99180.75;;;26.88;30.63
75045;BME280;63614;56.026;35.960;2023-06-22T10:12:20;99175.72;;;27.09;30.60
75045;BME280;63614;56.026;35.960;2023-06-22T10:14:46;99171.19;;;27.09;31.19
75045;BME280;63614;56.026;35.960;2023-06-22T10:17:30;99164.44;;;27.12;30.29
75045;BME280;63614;56.026;35.960;2023-06-22T10:19:56;99154.63;;;26.98;31.00
75045;BME280;63614;56.026;35.960;2023-06-22T10:22:40;99159.22;;;26.84;30.26
75045;BME280;63614;56.026;35.960;2023-06-22T10:27:50;99145.28;;;27.10;31.05
75045;BME280;63614;56.026;35.960;2023-06-22T10:30:16;99146.91;;;27.19;30.46
75045;BME280;63614;56.026;35.960;2023-06-22T10:33:00;99144.91;;;27.03;29.35
75045;BME280;63614;56.026;35.960;2023-06-22T10:35:25;99141.75;;;27.00;29.68
75045;BME280;63614;56.026;35.960;2023-06-22T10:37:51;99136.78;;;27.08;30.08
75045;BME280;63614;56.026;35.960;2023-06-22T10:40:16;99133.91;;;26.81;30.78
75045;BME280;63614;56.026;35.960;2023-06-22T10:42:44;99133.03;;;26.72;30.28
75045;BME280;63614;56.026;35.960;2023-06-22T10:45:09;99128.75;;;26.85;31.18
75045;BME280;63614;56.026;35.960;2023-06-22T10:47:35;99133.44;;;27.02;30.89
75045;BME280;63614;56.026;35.960;2023-06-22T10:50:01;99123.31;;;26.90;29.96
75045;BME280;63614;56.026;35.960;2023-06-22T10:52:27;99128.75;;;26.85;29.13
75045;BME280;63614;56.026;35.960;2023-06-22T10:54:52;99127.19;;;26.84;29.21
75045;BME280;63614;56.026;35.960;2023-06-22T10:57:19;99120.66;;;26.90;29.77
75045;BME280;63614;56.026;35.960;2023-06-22T10:59:45;99122.00;;;27.02;30.31
75045;BME280;63614;56.026;35.960;2023-06-22T11:02:10;99109.91;;;27.04;29.71
75045;BME280;63614;56.026;35.960;2023-06-22T11:04:36;99105.84;;;26.84;30.02
75045;BME280;63614;56.026;35.960;2023-06-22T11:07:01;99109.03;;;26.72;29.88
75045;BME280;63614;56.026;35.960;2023-06-22T11:09:30;99103.91;;;26.62;29.02
75045;BME280;63614;56.026;35.960;2023-06-22T11:11:56;99102.53;;;26.64;29.68
75045;BME280;63614;56.026;35.960;2023-06-22T11:14:23;99097.50;;;26.63;29.65
75045;BME280;63614;56.026;35.960;2023-06-22T11:16:49;99093.44;;;26.66;29.00
75045;BME280;63614;56.026;35.960;2023-06-22T11:19:14;99096.91;;;26.66;30.39
75045;BME280;63614;56.026;35.960;2023-06-22T11:21:40;99094.31;;;26.61;30.90
75045;BME280;63614;56.026;35.960;2023-06-22T11:24:06;99092.56;;;26.70;31.22
75045;BME280;63614;56.026;35.960;2023-06-22T11:26:31;99081.16;;;26.78;30.65
75045;BME280;63614;56.026;35.960;2023-06-22T11:28:57;99082.19;;;26.69;31.31
75045;BME280;63614;56.026;35.960;2023-06-22T11:31:23;99081.88;;;26.70;31.71
75045;BME280;63614;56.026;35.960;2023-06-22T11:34:07;99074.06;;;26.74;29.92
75045;BME280;63614;56.026;35.960;2023-06-22T11:36:51;99074.47;;;26.67;31.15
75045;BME280;63614;56.026;35.960;2023-06-22T11:39:16;99074.06;;;26.74;29.50
75045;BME280;63614;56.026;35.960;2023-06-22T11:41:42;99069.44;;;26.66;29.05
75045;BME280;63614;56.026;35.960;2023-06-22T11:44:26;99069.69;;;26.78;29.47
75045;BME280;63614;56.026;35.960;2023-06-22T11:47:13;99078.34;;;26.83;30.35
75045;BME280;63614;56.026;35.960;2023-06-22T11:49:38;99072.38;;;26.64;29.13
75045;BME280;63614;56.026;35.960;2023-06-22T11:55:07;99068.97;;;26.86;29.57
75045;BME280;63614;56.026;35.960;2023-06-22T11:57:33;99064.53;;;26.81;29.21
75045;BME280;63614;56.026;35.960;2023-06-22T11:59:59;99058.91;;;26.83;29.29
75045;BME280;63614;56.026;35.960;2023-06-22T12:02:24;99058.00;;;26.88;29.55
75045;BME280;63614;56.026;35.960;2023-06-22T12:04:50;99057.38;;;26.91;29.45
75045;BME280;63614;56.026;35.960;2023-06-22T12:07:18;99048.41;;;26.87;28.31
75045;BME280;63614;56.026;35.960;2023-06-22T12:09:46;99038.53;;;26.87;28.27
75045;BME280;63614;56.026;35.960;2023-06-22T12:12:12;99040.22;;;26.83;28.79
75045;BME280;63614;56.026;35.960;2023-06-22T12:14:37;99029.84;;;26.81;26.88
75045;BME280;63614;56.026;35.960;2023-06-22T12:19:47;99023.59;;;26.86;26.95
75045;BME280;63614;56.026;35.960;2023-06-22T12:25:16;99023.19;;;26.70;27.77
75045;BME280;63614;56.026;35.960;2023-06-22T12:27:42;99013.19;;;26.76;28.18
75045;BME280;63614;56.026;35.960;2023-06-22T12:30:08;99016.50;;;26.81;28.50
75045;BME280;63614;56.026;35.960;2023-06-22T12:32:34;99020.25;;;26.80;29.54
75045;BME280;63614;56.026;35.960;2023-06-22T12:34:59;99011.13;;;26.73;29.36
75045;BME280;63614;56.026;35.960;2023-06-22T12:37:27;99010.94;;;26.69;29.17
75045;BME280;63614;56.026;35.960;2023-06-22T12:40:11;99015.50;;;26.69;29.21
75045;BME280;63614;56.026;35.960;2023-06-22T12:42:37;99015.88;;;26.62;29.23
75045;BME280;63614;56.026;35.960;2023-06-22T12:45:20;99007.88;;;26.62;29.75
75045;BME280;63614;56.026;35.960;2023-06-22T12:47:46;99000.72;;;26.49;30.16
75045;BME280;63614;56.026;35.960;2023-06-22T12:50:12;99004.09;;;26.40;29.94
75045;BME280;63614;56.026;35.960;2023-06-22T12:52:39;99006.28;;;26.38;30.17
75045;BME280;63614;56.026;35.960;2023-06-22T12:55:23;99005.09;;;26.44;30.19
75045;BME280;63614;56.026;35.960;2023-06-22T12:57:49;99000.41;;;26.50;29.88
75045;BME280;63614;56.026;35.960;2023-06-22T13:00:33;98994.69;;;26.57;30.61
75045;BME280;63614;56.026;35.960;2023-06-22T13:02:58;98990.28;;;26.61;30.13
75045;BME280;63614;56.026;35.960;2023-06-22T13:05:24;98996.91;;;26.63;30.56
75045;BME280;63614;56.026;35.960;2023-06-22T13:07:49;98998.81;;;26.63;29.16
75045;BME280;63614;56.026;35.960;2023-06-22T13:10:15;98996.75;;;26.60;27.66
75045;BME280;63614;56.026;35.960;2023-06-22T13:12:40;98999.88;;;26.62;28.71
75045;BME280;63614;56.026;35.960;2023-06-22T13:17:50;98993.78;;;26.61;28.15
75045;BME280;63614;56.026;35.960;2023-06-22T13:23:21;98991.19;;;26.70;27.85
75045;BME280;63614;56.026;35.960;2023-06-22T13:25:47;99002.81;;;26.74;27.68
75045;BME280;63614;56.026;35.960;2023-06-22T13:28:12;98989.28;;;26.71;26.81
75045;BME280;63614;56.026;35.960;2023-06-22T13:30:40;98983.78;;;26.67;26.40